Archival Weather

Montgomery County Airpark

Gaithersburg, Maryland (KGAI)

Report from: Sunday, November 27, 2022 4:56 PM EST
Current time: Tuesday, June 18, 2024 7:11 AM EDT

Current weather – Weather history – Daily summaries
Weather forecast

Present weatherMist
Temperature10.6°C (51.1°F)
Dew point10.6°C (51.1°F)
Winds 4 kts (2.1 m/s, 4.6 mph) Vrb
Winds variableWinds variable
Visibility1.3 mi. (2 km)
Clouds Ceiling: Overcast 200 ft. (61 m)
Altimeter29.45 in.Hg (997 mB)
Relative humidity100 %
Density altitude151 ft. (46 m)
Sea-level pressure99.9 kPa (999 mB, 29.49 in.Hg)
Remarks Fully automated report
Automated weather observing station with precipitation discriminator
Flight conditions Low Instrument Meteorological Conditions
Raw dataKGAI 272156Z AUTO VRB04KT 1 1/4SM BR OVC002 11/11 A2945 RMK AO2 SLP987 T01060106
An error has occurred. This application may no longer respond until reloaded. Reload 🗙